TimeEDT,TemperatureF,Dew PointF,Humidity,Sea Level PressureIn,VisibilityMPH,Wind Direction,Wind SpeedMPH,Gust SpeedMPH,PrecipitationIn,Events,Conditions,WindDirDegrees,DateUTC
12:56 AM,73.0,64.0,73,29.96,10.0,WNW,5.8,-,N/A,,Partly Cloudy,300,2013-08-23 04:56:00
1:56 AM,71.1,64.0,78,29.95,10.0,Calm,Calm,-,N/A,,Partly Cloudy,0,2013-08-23 05:56:00
2:56 AM,70.0,64.0,81,29.95,10.0,NW,3.5,-,N/A,,Scattered Clouds,320,2013-08-23 06:56:00
3:56 AM,70.0,64.0,81,29.95,10.0,Calm,Calm,-,N/A,,Mostly Cloudy,0,2013-08-23 07:56:00
4:56 AM,69.1,64.0,84,29.95,10.0,NNE,3.5,-,N/A,,Mostly Cloudy,30,2013-08-23 08:56:00
5:56 AM,70.0,64.9,84,29.96,10.0,Calm,Calm,-,N/A,,Overcast,0,2013-08-23 09:56:00
6:56 AM,70.0,64.9,84,29.98,9.0,Calm,Calm,-,N/A,,Overcast,0,2013-08-23 10:56:00
7:56 AM,71.1,66.0,84,30.00,8.0,NE,3.5,-,N/A,,Overcast,40,2013-08-23 11:56:00
8:56 AM,72.0,64.0,76,30.01,10.0,Calm,Calm,-,N/A,,Overcast,0,2013-08-23 12:56:00
9:56 AM,72.0,64.0,76,30.03,10.0,Calm,Calm,-,N/A,,Overcast,0,2013-08-23 13:56:00
10:56 AM,73.0,64.0,73,30.05,10.0,Calm,Calm,-,N/A,,Overcast,0,2013-08-23 14:56:00
11:56 AM,72.0,64.0,76,30.07,10.0,NNW,4.6,-,0.00,Rain,Light Rain,340,2013-08-23 15:56:00
12:56 PM,73.0,61.0,66,30.06,10.0,Calm,Calm,-,0.01,,Mostly Cloudy,0,2013-08-23 16:56:00
1:56 PM,73.0,60.1,64,30.05,10.0,North,3.5,-,N/A,,Overcast,360,2013-08-23 17:56:00
2:56 PM,72.0,64.9,78,30.05,10.0,WNW,6.9,-,N/A,,Mostly Cloudy,290,2013-08-23 18:56:00
3:56 PM,75.9,61.0,60,30.04,10.0,WNW,8.1,-,N/A,,Mostly Cloudy,300,2013-08-23 19:56:00
4:56 PM,78.1,55.9,46,30.03,10.0,NNW,5.8,-,N/A,,Mostly Cloudy,340,2013-08-23 20:56:00
5:56 PM,78.1,55.0,45,30.03,10.0,Variable,4.6,-,N/A,,Scattered Clouds,0,2013-08-23 21:56:00
6:56 PM,77.0,57.0,50,30.03,10.0,North,4.6,-,N/A,,Partly Cloudy,350,2013-08-23 22:56:00
7:56 PM,70.0,62.1,76,30.04,10.0,Calm,Calm,-,N/A,,Partly Cloudy,0,2013-08-23 23:56:00
8:56 PM,66.9,62.1,84,30.07,10.0,Calm,Calm,-,N/A,,Clear,0,2013-08-24 00:56:00
9:56 PM,68.0,60.1,76,30.10,10.0,Calm,Calm,-,N/A,,Scattered Clouds,0,2013-08-24 01:56:00
10:56 PM,66.0,59.0,78,30.12,10.0,Calm,Calm,-,N/A,,Scattered Clouds,0,2013-08-24 02:56:00
11:56 PM,64.0,59.0,84,30.14,10.0,NNW,3.5,-,N/A,,Scattered Clouds,330,2013-08-24 03:56:00